createdAt,value
2023-02-19T00:01:26.252Z,101556.31
2023-02-19T00:03:59.039Z,101554.44
2023-02-19T00:06:28.330Z,101541.25
2023-02-19T00:08:55.703Z,101506.22
2023-02-19T00:11:25.214Z,101542.88
2023-02-19T00:13:53.677Z,101528.50
2023-02-19T00:16:25.189Z,101471.34
2023-02-19T00:18:53.384Z,101439.78
2023-02-19T00:21:20.319Z,101537.56
2023-02-19T00:23:51.677Z,101511.56
2023-02-19T00:26:19.119Z,101536.59
2023-02-19T00:28:49.349Z,101528.31
2023-02-19T00:31:31.479Z,101473.63
2023-02-19T00:34:02.107Z,101481.66
2023-02-19T00:36:29.352Z,101529.75
2023-02-19T00:38:56.297Z,101531.47
2023-02-19T00:41:24.192Z,101534.91
2023-02-19T00:43:52.326Z,101563.34
2023-02-19T00:46:26.681Z,101547.00
2023-02-19T00:48:54.294Z,101537.13
2023-02-19T00:51:23.135Z,101533.44
2023-02-19T00:53:50.098Z,101564.66
2023-02-19T00:56:16.779Z,101528.81
2023-02-19T00:58:43.562Z,101492.59
2023-02-19T01:01:11.427Z,101554.53
2023-02-19T01:03:39.519Z,101493.53
2023-02-19T01:06:09.122Z,101560.00
2023-02-19T01:08:36.586Z,101523.44
2023-02-19T01:11:05.412Z,101530.44
2023-02-19T01:13:33.031Z,101561.00
2023-02-19T01:16:13.746Z,101531.47
2023-02-19T01:18:40.620Z,101535.06
2023-02-19T01:21:28.250Z,101489.09
2023-02-19T01:23:56.072Z,101466.69
2023-02-19T01:26:28.675Z,101522.28
2023-02-19T01:28:55.371Z,101487.97
2023-02-19T01:31:24.160Z,101493.38
2023-02-19T01:33:53.623Z,101550.22
2023-02-19T01:36:20.521Z,101574.34
2023-02-19T01:38:47.439Z,101577.06
2023-02-19T01:41:20.021Z,101504.31
2023-02-19T01:44:04.478Z,101582.53
2023-02-19T01:46:33.382Z,101581.69
2023-02-19T01:49:06.472Z,101583.47
2023-02-19T01:51:35.882Z,101500.03
2023-02-19T01:54:06.684Z,101511.59
2023-02-19T01:56:35.605Z,101501.84
2023-02-19T01:59:03.217Z,101526.03
2023-02-19T02:01:29.855Z,101588.19
2023-02-19T02:03:57.232Z,101439.06
2023-02-19T02:06:36.273Z,101553.81
2023-02-19T02:09:21.654Z,101493.28
2023-02-19T02:11:51.237Z,101556.50
2023-02-19T02:14:22.109Z,101511.66
2023-02-19T02:17:09.922Z,101575.44
2023-02-19T02:20:08.006Z,101588.63
2023-02-19T02:22:44.667Z,101595.53
2023-02-19T02:25:33.821Z,101590.16
2023-02-19T02:28:08.074Z,101584.66
2023-02-19T02:30:47.761Z,101501.97
2023-02-19T02:33:28.414Z,101561.00
2023-02-19T02:36:05.240Z,101563.47
2023-02-19T02:38:37.058Z,101578.00
2023-02-19T02:41:05.303Z,101496.03
2023-02-19T02:43:31.999Z,101583.53
2023-02-19T02:45:59.347Z,101561.97
2023-02-19T02:48:47.137Z,101592.47
2023-02-19T02:51:24.490Z,101559.22
2023-02-19T02:54:25.369Z,101553.91
2023-02-19T02:56:54.460Z,101584.16
2023-02-19T02:59:26.150Z,101602.91
2023-02-19T03:02:14.692Z,101507.00
2023-02-19T03:05:36.579Z,101599.50
2023-02-19T03:08:17.698Z,101604.03
2023-02-19T03:11:24.035Z,101513.41
2023-02-19T03:14:13.827Z,101580.59
2023-02-19T03:17:02.716Z,101569.72
2023-02-19T03:19:34.349Z,101604.44
2023-02-19T03:22:14.336Z,101621.41
2023-02-19T03:25:10.638Z,101545.69
2023-02-19T03:27:39.980Z,101587.00
2023-02-19T03:30:21.249Z,101619.44
2023-02-19T03:32:54.927Z,101540.22
2023-02-19T03:35:25.784Z,101621.03
2023-02-19T03:38:04.774Z,101633.53
2023-02-19T03:40:44.035Z,101629.81
2023-02-19T03:43:21.268Z,101633.41
2023-02-19T03:46:14.375Z,101646.63
2023-02-19T03:48:57.252Z,101626.81
2023-02-19T03:51:40.178Z,101616.97
2023-02-19T03:54:13.136Z,101644.91
2023-02-19T03:56:50.220Z,101587.19
2023-02-19T03:59:24.312Z,101645.25
2023-02-19T04:01:56.483Z,101625.50
2023-02-19T04:04:32.387Z,101661.44
2023-02-19T04:06:59.230Z,101626.34
2023-02-19T04:09:36.916Z,101570.81
2023-02-19T04:12:09.988Z,101648.03
2023-02-19T04:14:46.854Z,101657.13
2023-02-19T04:17:34.901Z,101582.31
2023-02-19T04:20:07.019Z,101543.59
2023-02-19T04:22:36.223Z,101655.03
2023-02-19T04:25:03.344Z,101665.38
2023-02-19T04:27:29.925Z,101660.97
2023-02-19T04:29:56.954Z,101669.97
2023-02-19T04:32:23.580Z,101592.53
2023-02-19T04:34:50.128Z,101668.97
2023-02-19T04:37:16.774Z,101660.56
2023-02-19T04:39:43.322Z,101643.88
2023-02-19T04:42:10.937Z,101698.19
2023-02-19T04:44:37.489Z,101670.28
2023-02-19T04:47:04.152Z,101630.44
2023-02-19T04:49:30.663Z,101712.03
2023-02-19T04:51:57.231Z,101647.97
2023-02-19T04:54:23.875Z,101707.34
2023-02-19T04:56:50.790Z,101624.47
2023-02-19T04:59:17.501Z,101705.41
2023-02-19T05:01:44.284Z,101707.19
2023-02-19T05:04:10.909Z,101738.81
2023-02-19T05:06:37.544Z,101723.59
2023-02-19T05:09:04.154Z,101732.31
2023-02-19T05:11:30.739Z,101693.47
2023-02-19T05:13:57.392Z,101719.59
2023-02-19T05:16:23.995Z,101770.63
2023-02-19T05:18:50.651Z,101735.59
2023-02-19T05:21:17.211Z,101713.88
2023-02-19T05:23:44.088Z,101691.22
2023-02-19T05:26:17.881Z,101712.94
2023-02-19T05:28:45.722Z,101733.75
2023-02-19T05:31:13.631Z,101749.81
2023-02-19T05:33:42.837Z,101767.72
2023-02-19T05:36:12.768Z,101776.63
2023-02-19T05:38:40.985Z,101777.53
2023-02-19T05:41:25.633Z,101786.28
2023-02-19T05:43:52.431Z,101720.56
2023-02-19T05:46:21.584Z,101746.59
2023-02-19T05:48:49.585Z,101770.13
2023-02-19T05:51:18.529Z,101753.06
2023-02-19T05:53:45.752Z,101704.09
2023-02-19T05:56:30.544Z,101793.38
2023-02-19T05:58:58.363Z,101717.50
2023-02-19T06:01:27.667Z,101751.03
2023-02-19T06:03:57.402Z,101780.78
2023-02-19T06:06:24.863Z,101788.63
2023-02-19T06:08:51.572Z,101715.88
2023-02-19T06:11:19.311Z,101782.41
2023-02-19T06:13:46.362Z,101781.53
2023-02-19T06:16:13.215Z,101788.81
2023-02-19T06:18:41.168Z,101808.44
2023-02-19T06:21:10.147Z,101734.63
2023-02-19T06:23:37.485Z,101715.88
2023-02-19T06:26:15.071Z,101813.09
2023-02-19T06:28:42.292Z,101793.44
2023-02-19T06:31:10.226Z,101745.59
2023-02-19T06:33:40.389Z,101738.59
2023-02-19T06:36:10.999Z,101806.94
2023-02-19T06:38:37.673Z,101750.19
2023-02-19T06:41:06.157Z,101840.13
2023-02-19T06:43:33.817Z,101842.03
2023-02-19T06:46:05.340Z,101845.50
2023-02-19T06:48:33.483Z,101836.47
2023-02-19T06:51:00.047Z,101818.72
2023-02-19T06:53:27.466Z,101841.00
2023-02-19T06:55:57.913Z,101823.16
2023-02-19T06:58:24.706Z,101840.44
2023-02-19T07:00:51.591Z,101773.47
2023-02-19T07:03:18.178Z,101846.41
2023-02-19T07:05:44.786Z,101830.16
2023-02-19T07:08:11.342Z,101859.75
2023-02-19T07:10:37.978Z,101841.78
2023-02-19T07:13:05.067Z,101804.72
2023-02-19T07:15:31.627Z,101847.84
2023-02-19T07:17:59.504Z,101867.88
2023-02-19T07:20:26.322Z,101862.22
2023-02-19T07:22:52.985Z,101864.00
2023-02-19T07:25:19.727Z,101865.91
2023-02-19T07:27:46.376Z,101854.34
2023-02-19T07:30:15.582Z,101821.97
2023-02-19T07:32:42.645Z,101925.03
2023-02-19T07:35:09.185Z,101893.72
2023-02-19T07:37:35.810Z,101920.69
2023-02-19T07:40:03.371Z,101844.88
2023-02-19T07:42:33.686Z,101928.75
2023-02-19T07:45:00.866Z,101898.69
2023-02-19T07:47:29.313Z,101922.22
2023-02-19T07:49:55.957Z,101885.88
2023-02-19T07:52:22.579Z,101899.44
2023-02-19T07:54:49.194Z,101911.53
2023-02-19T07:57:15.881Z,101907.50
2023-02-19T07:59:42.497Z,101881.59
2023-02-19T08:02:35.203Z,101936.22
2023-02-19T08:05:02.338Z,101932.28
2023-02-19T08:07:36.375Z,101916.44
2023-02-19T08:10:23.332Z,101955.31
2023-02-19T08:13:16.752Z,101838.81
2023-02-19T08:15:43.896Z,101892.06
2023-02-19T08:18:10.922Z,101985.75
2023-02-19T08:20:37.622Z,101879.56
2023-02-19T08:23:05.684Z,101947.22
2023-02-19T08:25:32.869Z,101916.88
2023-02-19T08:28:00.416Z,101989.31
2023-02-19T08:30:31.204Z,101959.84
2023-02-19T08:33:02.038Z,101962.56
2023-02-19T08:35:29.065Z,101890.72
2023-02-19T08:37:59.761Z,101962.88
2023-02-19T08:40:26.450Z,101860.06
2023-02-19T08:42:53.288Z,101988.03
2023-02-19T08:45:20.282Z,102000.28
2023-02-19T08:47:46.869Z,101977.00
2023-02-19T08:50:13.562Z,101911.22
2023-02-19T08:52:40.179Z,101974.81
2023-02-19T08:55:07.101Z,101989.34
2023-02-19T08:57:37.420Z,101951.25
2023-02-19T09:00:05.964Z,101939.47
2023-02-19T09:02:33.117Z,102011.09
2023-02-19T09:04:59.683Z,102007.28
2023-02-19T09:07:26.825Z,102012.94
2023-02-19T09:09:53.513Z,102042.88
2023-02-19T09:12:20.535Z,102046.53
2023-02-19T09:14:47.741Z,101954.25
2023-02-19T09:17:14.417Z,101953.56
2023-02-19T09:19:40.936Z,102029.03
2023-02-19T09:22:07.625Z,102011.09
2023-02-19T09:24:34.221Z,101927.22
2023-02-19T09:27:01.016Z,102007.13
2023-02-19T09:29:28.799Z,101977.72
2023-02-19T09:32:00.275Z,102015.09
2023-02-19T09:34:28.445Z,102033.13
2023-02-19T09:36:55.543Z,102057.88
2023-02-19T09:39:22.135Z,101979.56
2023-02-19T09:41:57.939Z,102068.69
2023-02-19T09:44:29.530Z,101975.78
2023-02-19T09:46:56.761Z,102066.47
2023-02-19T09:49:31.847Z,102066.31
2023-02-19T09:52:06.018Z,102056.31
2023-02-19T09:54:33.911Z,102087.75
2023-02-19T09:57:02.784Z,102051.09
2023-02-19T09:59:37.481Z,102111.34
2023-02-19T10:02:23.816Z,102115.69
2023-02-19T10:04:52.092Z,102113.16
2023-02-19T10:07:22.467Z,102104.53
2023-02-19T10:09:55.628Z,102074.59
2023-02-19T10:12:31.092Z,102137.28
2023-02-19T10:15:36.055Z,102142.94
2023-02-19T10:18:04.363Z,102059.41
2023-02-19T10:20:31.416Z,102045.72
2023-02-19T10:23:06.558Z,102101.50
2023-02-19T10:25:34.653Z,102156.88
2023-02-19T10:28:02.250Z,102165.94
2023-02-19T10:30:33.700Z,102101.81
2023-02-19T10:33:09.795Z,102172.09
2023-02-19T10:35:51.114Z,102105.50
2023-02-19T10:38:20.415Z,102118.38
2023-02-19T10:40:47.557Z,102165.31
2023-02-19T10:43:31.091Z,102118.25
2023-02-19T10:45:59.561Z,102089.13
2023-02-19T10:48:36.993Z,102164.75
2023-02-19T10:51:08.338Z,102173.00
2023-02-19T10:53:44.907Z,102172.09
2023-02-19T10:56:29.762Z,102196.34
2023-02-19T10:59:16.043Z,102192.09
2023-02-19T11:01:56.126Z,102211.38
2023-02-19T11:04:24.416Z,102212.31
2023-02-19T11:06:51.551Z,102176.13
2023-02-19T11:09:29.145Z,102204.31
2023-02-19T11:11:57.732Z,102129.28
2023-02-19T11:14:26.056Z,102105.91
2023-02-19T11:16:58.130Z,102103.88
2023-02-19T11:19:41.178Z,102171.16
2023-02-19T11:22:29.453Z,102177.13
2023-02-19T11:24:59.616Z,102148.88
2023-02-19T11:27:26.379Z,102173.16
2023-02-19T11:29:53.012Z,102096.47
2023-02-19T11:32:30.587Z,102174.16
2023-02-19T11:35:22.938Z,102169.88
2023-02-19T11:37:55.691Z,102137.34
2023-02-19T11:40:30.494Z,102179.91
2023-02-19T11:43:12.814Z,102163.13
2023-02-19T11:45:56.609Z,102150.72
2023-02-19T11:48:58.148Z,102184.13
2023-02-19T11:51:28.239Z,102189.25
2023-02-19T11:54:10.620Z,102166.25
2023-02-19T11:56:40.812Z,102188.97
2023-02-19T11:59:26.486Z,102190.47
2023-02-19T12:02:23.723Z,102198.53
2023-02-19T12:04:53.324Z,102198.53
2023-02-19T12:07:38.125Z,102196.94
2023-02-19T12:10:18.380Z,102171.44
2023-02-19T12:13:00.443Z,102193.78
2023-02-19T12:15:45.292Z,102194.31
2023-02-19T12:18:36.896Z,102204.22
2023-02-19T12:21:06.605Z,102216.44
2023-02-19T12:23:54.767Z,102077.38
2023-02-19T12:26:29.516Z,102211.13
2023-02-19T12:29:34.375Z,102211.19
2023-02-19T12:32:16.146Z,102136.25
2023-02-19T12:35:08.317Z,102208.81
2023-02-19T12:37:46.903Z,102205.97
2023-02-19T12:40:41.357Z,102192.94
2023-02-19T12:43:18.324Z,102173.41
2023-02-19T12:46:17.141Z,102190.22
2023-02-19T12:48:58.844Z,102174.38
2023-02-19T12:51:55.069Z,102185.78
2023-02-19T12:54:28.184Z,102154.13
2023-02-19T12:57:02.176Z,102207.72
2023-02-19T12:59:35.525Z,102215.13
2023-02-19T13:02:05.206Z,102220.56
2023-02-19T13:05:04.441Z,102219.09
2023-02-19T13:07:38.421Z,102143.13
2023-02-19T13:10:11.072Z,102224.16
2023-02-19T13:12:39.461Z,102222.06
2023-02-19T13:15:31.721Z,102207.69
2023-02-19T13:18:01.578Z,102209.78
2023-02-19T13:20:38.893Z,102226.47
2023-02-19T13:23:31.645Z,102231.19
2023-02-19T13:26:38.787Z,102224.22
2023-02-19T13:29:23.920Z,102244.66
2023-02-19T13:32:04.752Z,102248.44
2023-02-19T13:34:59.600Z,102254.81
2023-02-19T13:37:26.711Z,102168.19
2023-02-19T13:39:55.372Z,102241.13
2023-02-19T13:42:34.284Z,102254.19
2023-02-19T13:45:04.002Z,102249.88
2023-02-19T13:47:58.668Z,102287.25
2023-02-19T13:50:31.335Z,102255.47
2023-02-19T13:52:58.712Z,102277.56
2023-02-19T13:55:47.220Z,102186.72
2023-02-19T13:58:32.756Z,102265.78
2023-02-19T14:01:01.256Z,102258.66
2023-02-19T14:03:45.542Z,102264.25
2023-02-19T14:06:12.469Z,102176.06
2023-02-19T14:08:56.589Z,102235.31
2023-02-19T14:11:41.400Z,102288.31
2023-02-19T14:14:22.931Z,102287.03
2023-02-19T14:16:54.181Z,102198.34
2023-02-19T14:19:42.104Z,102294.28
2023-02-19T14:22:50.334Z,102284.72
2023-02-19T14:25:32.003Z,102295.03
2023-02-19T14:28:02.831Z,102205.94
2023-02-19T14:30:31.617Z,102303.72
2023-02-19T14:33:10.295Z,102284.81
2023-02-19T14:35:44.086Z,102155.53
2023-02-19T14:38:27.135Z,102272.66
2023-02-19T14:40:55.478Z,102273.50
2023-02-19T14:43:24.755Z,102270.84
2023-02-19T14:46:22.876Z,102275.38
2023-02-19T14:48:50.684Z,102259.47
2023-02-19T14:51:30.505Z,102228.78
2023-02-19T14:54:01.401Z,102271.47
2023-02-19T14:56:34.156Z,102277.69
2023-02-19T14:59:25.186Z,102263.22
2023-02-19T15:01:56.783Z,102195.81
2023-02-19T15:04:26.434Z,102178.38
2023-02-19T15:06:56.599Z,102164.88
2023-02-19T15:09:31.796Z,102247.31
2023-02-19T15:11:59.720Z,102144.84
2023-02-19T15:14:30.547Z,102200.78
2023-02-19T15:17:01.117Z,102159.84
2023-02-19T15:19:32.824Z,102217.59
2023-02-19T15:21:59.680Z,102245.78
2023-02-19T15:24:28.167Z,102224.72
2023-02-19T15:26:55.348Z,102217.09
2023-02-19T15:29:24.628Z,102168.16
2023-02-19T15:31:53.927Z,102170.94
2023-02-19T15:34:31.983Z,102261.31
2023-02-19T15:37:02.088Z,102244.09
2023-02-19T15:39:48.043Z,102246.25
2023-02-19T15:42:21.187Z,102254.56
2023-02-19T15:44:47.689Z,102280.97
2023-02-19T15:47:21.799Z,102247.72
2023-02-19T15:49:58.288Z,102282.25
2023-02-19T15:52:48.822Z,102270.97
2023-02-19T15:55:21.637Z,102215.22
2023-02-19T15:58:04.513Z,102287.72
2023-02-19T16:00:34.155Z,102292.19
2023-02-19T16:03:01.687Z,102271.00
2023-02-19T16:05:29.121Z,102298.75
2023-02-19T16:08:07.263Z,102287.59
2023-02-19T16:10:34.010Z,102305.88
2023-02-19T16:13:03.266Z,102313.31
2023-02-19T16:15:31.938Z,102321.69
2023-02-19T16:17:59.476Z,102321.84
2023-02-19T16:20:32.403Z,102310.81
2023-02-19T16:23:02.920Z,102247.81
2023-02-19T16:25:37.235Z,102350.72
2023-02-19T16:28:20.251Z,102342.22
2023-02-19T16:30:47.368Z,102277.44
2023-02-19T16:33:36.209Z,102377.59
2023-02-19T16:36:21.395Z,102372.34
2023-02-19T16:39:03.275Z,102385.34
2023-02-19T16:41:29.912Z,102366.44
2023-02-19T16:43:56.461Z,102330.31
2023-02-19T16:46:23.479Z,102379.75
2023-02-19T16:48:51.044Z,102366.34
2023-02-19T16:51:26.192Z,102301.13
2023-02-19T16:53:52.998Z,102318.34
2023-02-19T16:56:22.849Z,102380.63
2023-02-19T16:58:50.270Z,102373.53
2023-02-19T17:01:17.524Z,102299.97
2023-02-19T17:03:47.021Z,102303.84
2023-02-19T17:06:14.193Z,102315.22
2023-02-19T17:08:43.404Z,102367.91
2023-02-19T17:11:15.352Z,102393.00
2023-02-19T17:13:43.322Z,102373.81
2023-02-19T17:16:23.396Z,102341.16
2023-02-19T17:18:50.696Z,102420.97
2023-02-19T17:21:25.069Z,102418.25
2023-02-19T17:23:53.818Z,102389.22
2023-02-19T17:26:26.547Z,102408.28
2023-02-19T17:28:54.023Z,102413.97
2023-02-19T17:31:20.733Z,102392.09
2023-02-19T17:33:47.385Z,102269.75
2023-02-19T17:36:23.731Z,102411.06
2023-02-19T17:38:50.433Z,102401.19
2023-02-19T17:41:17.027Z,102284.31
2023-02-19T17:43:43.717Z,102387.13
2023-02-19T17:46:22.377Z,102297.34
2023-02-19T17:48:49.396Z,102412.38
2023-02-19T17:51:16.284Z,102382.28
2023-02-19T17:53:43.411Z,102393.84
2023-02-19T17:56:16.045Z,102433.81
2023-02-19T17:58:42.514Z,102424.56
2023-02-19T18:01:09.167Z,102391.25
2023-02-19T18:03:35.905Z,102303.88
2023-02-19T18:06:02.450Z,102396.88
2023-02-19T18:08:29.044Z,102346.09
2023-02-19T18:10:55.632Z,102417.84
2023-02-19T18:13:22.305Z,102442.03
2023-02-19T18:15:49.873Z,102419.66
2023-02-19T18:18:16.525Z,102365.06
2023-02-19T18:20:43.222Z,102350.06
2023-02-19T18:23:09.884Z,102355.19
2023-02-19T18:25:36.453Z,102415.78
2023-02-19T18:28:02.989Z,102366.94
2023-02-19T18:30:30.129Z,102369.16
2023-02-19T18:32:57.416Z,102460.19
2023-02-19T18:35:24.043Z,102374.19
2023-02-19T18:37:52.624Z,102378.22
2023-02-19T18:40:25.768Z,102437.63
2023-02-19T18:42:52.763Z,102370.41
2023-02-19T18:45:19.329Z,102435.66
2023-02-19T18:47:47.678Z,102375.84
2023-02-19T18:50:15.013Z,102368.50
2023-02-19T18:52:41.530Z,102366.34
2023-02-19T18:55:10.417Z,102410.59
2023-02-19T18:57:37.022Z,102370.22
2023-02-19T19:00:06.301Z,102388.97
2023-02-19T19:02:47.147Z,102428.56
2023-02-19T19:05:23.168Z,102371.31
2023-02-19T19:07:59.145Z,102462.50
2023-02-19T19:10:26.326Z,102378.09
2023-02-19T19:12:54.151Z,102445.44
2023-02-19T19:15:21.870Z,102431.06
2023-02-19T19:17:48.653Z,102372.97
2023-02-19T19:20:20.883Z,102371.97
2023-02-19T19:22:52.744Z,102440.06
2023-02-19T19:25:21.079Z,102433.94
2023-02-19T19:27:50.309Z,102431.56
2023-02-19T19:30:17.350Z,102362.75
2023-02-19T19:32:44.049Z,102446.66
2023-02-19T19:35:10.685Z,102365.06
2023-02-19T19:37:37.293Z,102393.94
2023-02-19T19:40:04.271Z,102336.28
2023-02-19T19:42:30.862Z,102433.03
2023-02-19T19:44:57.552Z,102455.66
2023-02-19T19:47:24.187Z,102426.78
2023-02-19T19:49:50.901Z,102350.16
2023-02-19T19:52:17.496Z,102469.34
2023-02-19T19:54:44.622Z,102389.59
2023-02-19T19:57:12.137Z,102479.09
2023-02-19T19:59:39.448Z,102458.78
2023-02-19T20:02:07.412Z,102398.63
2023-02-19T20:04:34.019Z,102439.44
2023-02-19T20:07:00.832Z,102385.00
2023-02-19T20:09:28.988Z,102391.75
2023-02-19T20:11:55.881Z,102504.84
2023-02-19T20:14:23.804Z,102490.22
2023-02-19T20:16:50.568Z,102409.19
2023-02-19T20:19:19.463Z,102425.09
2023-02-19T20:21:48.204Z,102501.63
2023-02-19T20:24:17.679Z,102500.19
2023-02-19T20:26:44.749Z,102468.66
2023-02-19T20:29:11.660Z,102494.22
2023-02-19T20:31:39.283Z,102421.28
2023-02-19T20:34:05.972Z,102423.19
2023-02-19T20:36:32.789Z,102491.03
2023-02-19T20:38:59.433Z,102378.91
2023-02-19T20:41:26.198Z,102477.63
2023-02-19T20:43:52.882Z,102457.97
2023-02-19T20:46:19.534Z,102386.53
2023-02-19T20:48:46.231Z,102439.41
2023-02-19T20:51:12.792Z,102447.41
2023-02-19T20:53:42.226Z,102315.66
2023-02-19T20:56:09.116Z,102445.59
2023-02-19T20:58:35.816Z,102450.66
2023-02-19T21:01:02.347Z,102440.66
2023-02-19T21:03:29.372Z,102418.50
2023-02-19T21:05:55.964Z,102437.38
2023-02-19T21:08:22.480Z,102385.00
2023-02-19T21:10:49.109Z,102479.06
2023-02-19T21:13:15.735Z,102469.88
2023-02-19T21:15:42.442Z,102435.72
2023-02-19T21:18:09.276Z,102457.59
2023-02-19T21:20:35.941Z,102473.06
2023-02-19T21:23:03.545Z,102462.44
2023-02-19T21:25:32.989Z,102313.53
2023-02-19T21:27:59.590Z,102446.44
2023-02-19T21:30:26.232Z,102362.81
2023-02-19T21:32:52.860Z,102359.88
2023-02-19T21:35:19.467Z,102432.03
2023-02-19T21:37:46.027Z,102223.91
2023-02-19T21:40:13.355Z,102426.09
2023-02-19T21:42:40.052Z,102385.69
2023-02-19T21:45:07.180Z,102452.00
2023-02-19T21:47:33.741Z,102364.69
2023-02-19T21:50:00.352Z,102351.34
2023-02-19T21:52:26.984Z,102459.06
2023-02-19T21:54:53.470Z,102379.22
2023-02-19T21:57:20.107Z,102416.31
2023-02-19T21:59:46.665Z,102372.97
2023-02-19T22:02:13.438Z,102369.13
2023-02-19T22:04:40.170Z,102427.34
2023-02-19T22:07:06.826Z,102358.63
2023-02-19T22:09:33.386Z,102440.28
2023-02-19T22:11:59.960Z,102374.72
2023-02-19T22:14:26.518Z,102451.41
2023-02-19T22:16:53.009Z,102432.63
2023-02-19T22:19:19.920Z,102460.31
2023-02-19T22:21:46.564Z,102425.16
2023-02-19T22:24:19.795Z,102409.69
2023-02-19T22:26:47.189Z,102470.22
2023-02-19T22:29:15.485Z,102452.53
2023-02-19T22:31:43.220Z,102452.34
2023-02-19T22:34:09.974Z,102440.31
2023-02-19T22:36:40.351Z,102455.28
2023-02-19T22:39:08.648Z,102444.16
2023-02-19T22:41:35.469Z,102469.44
2023-02-19T22:44:02.470Z,102392.81
2023-02-19T22:46:32.371Z,102434.97
2023-02-19T22:49:03.353Z,102375.03
2023-02-19T22:51:30.163Z,102351.78
2023-02-19T22:53:58.409Z,102371.09
2023-02-19T22:56:27.263Z,102349.75
2023-02-19T22:58:55.835Z,102455.69
2023-02-19T23:01:23.305Z,102419.50
2023-02-19T23:03:55.593Z,102420.59
2023-02-19T23:06:27.699Z,102432.84
2023-02-19T23:08:56.640Z,102381.59
2023-02-19T23:11:25.838Z,102347.75
2023-02-19T23:13:53.329Z,102349.47
2023-02-19T23:16:20.566Z,102454.69
2023-02-19T23:18:48.006Z,102425.97
2023-02-19T23:21:15.434Z,102320.88
2023-02-19T23:23:42.625Z,102419.78
2023-02-19T23:26:10.041Z,102327.25
2023-02-19T23:28:38.837Z,102396.25
2023-02-19T23:31:05.780Z,102320.88
2023-02-19T23:33:32.713Z,102317.94
2023-02-19T23:35:59.290Z,102416.75
2023-02-19T23:38:25.943Z,102386.44
2023-02-19T23:40:52.466Z,102399.16
2023-02-19T23:43:19.039Z,102310.97
2023-02-19T23:45:45.731Z,102405.94
2023-02-19T23:48:12.563Z,102403.91
2023-02-19T23:50:39.114Z,102387.72
2023-02-19T23:53:05.777Z,102291.97
2023-02-19T23:55:32.354Z,102412.16
2023-02-19T23:57:58.936Z,102249.84
